Página principal
METAR-TAF:

METAR-TAF

Aeroportos :

Aeroporto Internacional de Chengdu Shuangliu

Chengdu, China

latitude: 30-40N, longitude: 104-01E, altura: 508 m

Observação actual do tempo

O boletim foi feito há 22 minutos, às 14:00 UTC
Vento calmo
Temperatura 29°C
Humidade 84%
Pressão 1001 hPa
Visibilidade 10 km ou mais
Poucas nuvensa uma altura de 2300 ft, Cumulus congestus.

METAR: ZUUU 181400Z 00000MPS 9999 FEW023TCU 29/26 Q1001 NOSIG

Hora: 22:22 (14:22 UTC)

Previsão

O boletim foi feito há 6 horas e 6 minutos, às 08:16 UTC
Previsão válida de 18 às 12 UTC a 19 às 12 UTC
Vento 6 kt de su-sudoeste
Visibilidade: 5000 m
Nuvens dispersasa uma altura de 5000 ft
neblina
Temporariamente
de 19 às 06 UTC a 19 às 12 UTC
Poucas nuvensa uma altura de 3000 ft, Cumulonimbus.
Nuvens dispersasa uma altura de 4000 ft

TAF: ZUUU 180816Z 1812/1912 20003MPS 5000 BR SCT050 TX34/1907Z TN24/1822Z TEMPO 1906/1912 FEW030CB SCT040

Observações e previsões do tempo de mais de 4000 aeroportos (mensagens METAR e TAF).

As estações disponíveis são os pontos amarelos e vermelhos sobre o mapa.

Mova o rato sobre o mapa para ver o nome da estação.

Depois clique no ponto para visualizar as observações e previsões meteorológicas.

Para alterar o mapa : clique nos botões verdes com uma cruz preta para aumentar o zoom; no botão verde com uma pitada de zoom; ou nas setas verdes para mapas adjacentes.


METAR-TAF: